Time;durP1;ratioP1;P1;durP2;ratioP2;P2;SDS_P1;SDS_P2;PMS_P1;PMS_P2;Temp;Humidity;BMP_temperature;BMP_pressure;BME280_temperature;BME280_humidity;BME280_pressure;Samples;Min_cycle;Max_cycle;Signal;HPM_P1;HPM_P2
2022/11/26 00:02:25;;;;;;;31.48;17.90;;;;;;;2.15;100.00;97604.09;5060739;28;20040;-74
2022/11/26 00:04:52;;;;;;;28.23;17.10;;;;;;;2.15;100.00;97597.91;5067058;28;20060;-71
2022/11/26 00:07:24;;;;;;;31.42;18.63;;;;;;;2.16;100.00;97602.19;5059648;28;20036;-73
2022/11/26 00:09:50;;;;;;;31.80;18.95;;;;;;;2.20;100.00;97614.06;5067330;28;20097;-72
2022/11/26 00:12:23;;;;;;;29.13;17.17;;;;;;;2.10;100.00;97623.09;5060706;28;20098;-70
2022/11/26 00:14:49;;;;;;;27.05;15.98;;;;;;;2.02;100.00;97623.72;5065787;28;20045;-72
2022/11/26 00:17:16;;;;;;;29.30;15.50;;;;;;;2.00;100.00;97615.09;5062035;28;20040;-72
2022/11/26 00:19:43;;;;;;;24.15;15.68;;;;;;;1.94;100.00;97627.06;5059303;28;20025;-75
2022/11/26 00:22:24;;;;;;;23.98;13.68;;;;;;;1.94;100.00;97627.84;5058816;28;20075;-71
2022/11/26 00:24:50;;;;;;;25.05;14.73;;;;;;;2.12;100.00;97626.28;5066581;28;20492;-71
2022/11/26 00:27:16;;;;;;;26.90;16.10;;;;;;;2.07;100.00;97629.06;5060362;28;20043;-73
2022/11/26 00:29:42;;;;;;;28.83;16.98;;;;;;;1.98;100.00;97628.09;5066553;28;20488;-71
2022/11/26 00:32:23;;;;;;;26.75;14.48;;;;;;;1.84;100.00;97628.00;5062552;28;20133;-71
2022/11/26 00:34:48;;;;;;;20.60;14.20;;;;;;;1.70;100.00;97635.97;5047442;28;20489;-69
2022/11/26 00:37:22;;;;;;;20.13;13.52;;;;;;;1.68;100.00;97647.03;5062875;28;20124;-71
2022/11/26 00:39:49;;;;;;;21.23;14.60;;;;;;;1.80;100.00;97638.56;5066055;28;20040;-71
2022/11/26 00:42:16;;;;;;;23.35;15.80;;;;;;;1.87;100.00;97640.91;5060824;28;20037;-72
2022/11/26 00:44:41;;;;;;;18.75;13.38;;;;;;;1.91;100.00;97640.06;5058545;28;20145;-73
2022/11/26 00:47:08;;;;;;;34.50;13.98;;;;;;;1.99;100.00;97635.13;5059963;28;20091;-69
2022/11/26 00:49:33;;;;;;;48.08;15.20;;;;;;;2.02;100.00;97639.94;5064661;28;20310;-71
2022/11/26 00:51:59;;;;;;;26.73;12.75;;;;;;;2.10;100.00;97640.09;5061539;28;20041;-70
2022/11/26 00:54:25;;;;;;;29.05;14.93;;;;;;;2.11;100.00;97638.22;5058774;28;20048;-70
2022/11/26 00:56:50;;;;;;;26.02;14.13;;;;;;;2.17;100.00;97642.47;5060272;28;20036;-71
2022/11/26 00:59:20;;;;;;;35.78;15.73;;;;;;;2.17;100.00;97637.06;5041214;28;20048;-71
2022/11/26 01:01:46;;;;;;;32.88;16.58;;;;;;;2.23;100.00;97648.59;5064018;28;20090;-70
2022/11/26 01:04:11;;;;;;;29.33;15.40;;;;;;;2.25;100.00;97649.13;5038872;28;20044;-75
2022/11/26 01:06:42;;;;;;;64.55;17.15;;;;;;;2.13;100.00;97638.72;5051722;28;20040;-72
2022/11/26 01:09:26;;;;;;;127.22;20.02;;;;;;;1.82;100.00;97640.94;5054640;28;20031;-73
2022/11/26 01:11:51;;;;;;;69.72;16.05;;;;;;;1.48;100.00;97647.25;5063922;28;20044;-70
2022/11/26 01:14:18;;;;;;;75.35;17.60;;;;;;;1.33;100.00;97642.78;5056588;28;20044;-72
2022/11/26 01:16:45;;;;;;;101.03;18.90;;;;;;;1.22;100.00;97638.56;5063639;28;20044;-70
2022/11/26 01:19:13;;;;;;;71.40;18.38;;;;;;;1.17;100.00;97642.13;5059346;28;20037;-70
2022/11/26 01:21:39;;;;;;;123.25;20.35;;;;;;;1.07;100.00;97643.00;5064066;28;20041;-71
2022/11/26 01:24:05;;;;;;;97.18;19.83;;;;;;;0.91;100.00;97652.28;5057460;28;20094;-71
2022/11/26 01:26:33;;;;;;;78.50;21.27;;;;;;;0.83;100.00;97652.84;5061603;28;20036;-70
2022/11/26 01:28:59;;;;;;;89.40;24.13;;;;;;;0.72;100.00;97650.25;5060212;28;20067;-70
2022/11/26 01:31:27;;;;;;;87.30;23.23;;;;;;;0.61;100.00;97654.06;5039708;28;20064;-70
2022/11/26 01:33:54;;;;;;;86.78;25.23;;;;;;;0.61;100.00;97661.34;5061069;28;20036;-72
2022/11/26 01:36:35;;;;;;;100.90;26.08;;;;;;;0.63;100.00;97665.41;5054123;28;20098;-70
2022/11/26 01:39:14;;;;;;;125.07;26.83;;;;;;;0.64;100.00;97669.69;5060512;28;20509;-72
2022/11/26 01:42:02;;;;;;;149.05;32.08;;;;;;;0.72;100.00;97669.13;5044144;28;20555;-69
2022/11/26 01:44:30;;;;;;;116.80;26.02;;;;;;;0.78;100.00;97678.00;5057692;28;20047;-72
2022/11/26 01:46:57;;;;;;;50.55;24.30;;;;;;;0.97;100.00;97675.44;5060757;28;20040;-71
2022/11/26 01:49:29;;;;;;;63.83;24.27;;;;;;;1.34;100.00;97679.47;5056884;28;20536;-70
2022/11/26 01:52:13;;;;;;;52.97;23.40;;;;;;;1.53;100.00;97688.50;5062061;28;20044;-71
2022/11/26 01:54:42;;;;;;;153.93;26.70;;;;;;;1.51;100.00;97689.84;5057654;28;20040;-71
2022/11/26 01:57:19;;;;;;;121.82;28.63;;;;;;;1.21;100.00;97693.63;5055499;28;20033;-72
2022/11/26 01:59:49;;;;;;;148.10;29.17;;;;;;;0.99;100.00;97702.94;5044312;28;20083;-69
2022/11/26 02:02:16;;;;;;;121.32;28.83;;;;;;;0.99;100.00;97723.72;5056597;28;20568;-70
2022/11/26 02:05:06;;;;;;;129.05;30.23;;;;;;;0.98;100.00;97727.50;5062182;28;20133;-71
2022/11/26 02:07:33;;;;;;;52.30;25.75;;;;;;;1.11;100.00;97721.47;5053374;28;20036;-70
2022/11/26 02:09:59;;;;;;;51.17;24.35;;;;;;;1.36;100.00;97723.19;5062104;28;20036;-71
2022/11/26 02:12:25;;;;;;;49.88;23.10;;;;;;;1.61;100.00;97724.09;5055910;28;20041;-72
2022/11/26 02:14:51;;;;;;;53.90;22.05;;;;;;;1.70;100.00;97725.09;5061332;28;20047;-71
2022/11/26 02:17:35;;;;;;;47.33;23.27;;;;;;;1.70;100.00;97725.88;5054789;28;20043;-73
2022/11/26 02:20:21;;;;;;;47.88;22.45;;;;;;;1.73;100.00;97727.22;5043042;28;20049;-71
2022/11/26 02:23:05;;;;;;;42.65;23.58;;;;;;;1.70;100.00;97725.09;5059615;28;20119;-72
2022/11/26 02:25:48;;;;;;;44.08;22.75;;;;;;;1.75;100.00;97730.44;5064494;28;20044;-71
2022/11/26 02:28:36;;;;;;;51.58;21.88;;;;;;;1.82;100.00;97736.31;5065721;28;20044;-71
2022/11/26 02:31:10;;;;;;;44.38;20.60;;;;;;;1.89;100.00;97746.78;5066126;28;20546;-71
2022/11/26 02:33:46;;;;;;;42.88;19.90;;;;;;;1.92;100.00;97747.00;5061533;28;20053;-69
2022/11/26 02:36:18;;;;;;;44.10;20.05;;;;;;;2.00;100.00;97751.03;5035328;28;20509;-70
2022/11/26 02:38:43;;;;;;;185.40;27.10;;;;;;;1.90;100.00;97748.41;5041596;28;20094;-70
2022/11/26 02:41:08;;;;;;;265.55;30.60;;;;;;;1.69;100.00;97750.47;5037286;28;20045;-70
2022/11/26 02:43:35;;;;;;;82.60;22.35;;;;;;;1.64;100.00;97754.03;5040240;28;20127;-71
2022/11/26 02:46:04;;;;;;;43.58;21.98;;;;;;;1.64;100.00;97748.63;5056725;28;20036;-71
2022/11/26 02:48:35;;;;;;;103.80;22.52;;;;;;;1.43;100.00;97750.69;5059624;28;20047;-71
2022/11/26 02:51:07;;;;;;;38.28;21.38;;;;;;;1.50;100.00;97763.88;5039850;28;20049;-72
2022/11/26 02:53:34;;;;;;;34.75;18.80;;;;;;;1.71;100.00;97773.41;5040723;28;20044;-69
2022/11/26 02:56:04;;;;;;;34.88;19.48;;;;;;;1.97;100.00;97778.59;5039156;28;20374;-71
2022/11/26 02:58:31;;;;;;;34.65;17.42;;;;;;;2.10;100.00;97782.53;5034294;28;20131;-70
2022/11/26 03:00:59;;;;;;;35.45;17.20;;;;;;;2.25;100.00;97785.09;5041394;28;20060;-71
2022/11/26 03:03:33;;;;;;;30.13;16.60;;;;;;;2.34;100.00;97789.88;5034926;28;20069;-72
2022/11/26 03:06:03;;;;;;;30.38;15.80;;;;;;;2.39;100.00;97793.31;5057238;28;20573;-73
2022/11/26 03:08:30;;;;;;;25.88;16.13;;;;;;;2.43;100.00;97790.84;5059021;28;20124;-70
2022/11/26 03:10:56;;;;;;;31.60;17.88;;;;;;;2.56;100.00;97792.88;5060385;28;20441;-70
2022/11/26 03:13:21;;;;;;;33.38;17.83;;;;;;;2.59;100.00;97799.59;5055357;28;20127;-70
2022/11/26 03:15:47;;;;;;;30.25;17.15;;;;;;;2.64;100.00;97799.56;5059993;28;20076;-70
2022/11/26 03:18:12;;;;;;;31.85;17.98;;;;;;;2.72;100.00;97801.63;5055366;28;20045;-70
2022/11/26 03:20:37;;;;;;;33.22;17.13;;;;;;;2.67;100.00;97807.91;5060222;28;20068;-72
2022/11/26 03:23:03;;;;;;;30.58;15.80;;;;;;;2.70;100.00;97803.81;5055826;28;20052;-73
2022/11/26 03:25:28;;;;;;;32.42;18.35;;;;;;;2.69;100.00;97804.91;5057843;28;20036;-71
2022/11/26 03:27:54;;;;;;;31.45;17.63;;;;;;;2.73;100.00;97805.94;5060983;28;20040;-70
2022/11/26 03:30:19;;;;;;;30.75;17.52;;;;;;;2.83;100.00;97813.94;5038034;28;20044;-70
2022/11/26 03:32:44;;;;;;;31.98;20.42;;;;;;;2.83;100.00;97810.44;5060957;28;20075;-71
2022/11/26 03:35:10;;;;;;;29.88;19.25;;;;;;;2.82;100.00;97808.81;5036772;28;20041;-69
2022/11/26 03:37:36;;;;;;;27.15;16.40;;;;;;;2.77;100.00;97809.66;5059588;28;20102;-71
2022/11/26 03:40:01;;;;;;;30.35;17.13;;;;;;;2.85;100.00;97814.47;5060532;28;20094;-69
2022/11/26 03:42:27;;;;;;;26.50;16.65;;;;;;;2.91;100.00;97809.00;5055894;28;20037;-71
2022/11/26 03:44:52;;;;;;;26.23;15.02;;;;;;;2.87;100.00;97808.75;5057436;28;20066;-71
2022/11/26 03:47:18;;;;;;;23.33;14.70;;;;;;;2.90;100.00;97815.47;5053872;28;20456;-71
2022/11/26 03:49:43;;;;;;;25.95;16.98;;;;;;;2.97;100.00;97814.06;5059939;28;20057;-71
2022/11/26 03:52:09;;;;;;;24.27;14.80;;;;;;;3.04;100.00;97817.22;5054641;28;20101;-70
2022/11/26 03:54:34;;;;;;;25.10;15.38;;;;;;;2.98;100.00;97818.38;5059607;28;20461;-71
2022/11/26 03:57:00;;;;;;;26.38;16.92;;;;;;;2.98;100.00;97818.38;5059139;28;20047;-70
2022/11/26 03:59:25;;;;;;;25.40;15.35;;;;;;;3.03;100.00;97821.00;5053182;28;20106;-70
2022/11/26 04:01:50;;;;;;;25.23;14.93;;;;;;;3.15;100.00;97815.19;5057190;28;20044;-69
2022/11/26 04:04:16;;;;;;;21.67;14.43;;;;;;;3.14;100.00;97820.88;5054813;28;20091;-70
2022/11/26 04:06:41;;;;;;;23.40;15.70;;;;;;;3.19;100.00;97829.75;5059662;28;20037;-72
2022/11/26 04:09:07;;;;;;;22.55;16.13;;;;;;;3.27;100.00;97831.00;5056125;28;20047;-69
2022/11/26 04:11:32;;;;;;;21.83;14.82;;;;;;;3.32;100.00;97833.63;5063667;28;20040;-71
2022/11/26 04:13:58;;;;;;;21.90;15.50;;;;;;;3.28;100.00;97835.31;5063355;28;20477;-72
2022/11/26 04:16:24;;;;;;;25.40;15.85;;;;;;;3.27;100.00;97839.13;5057655;28;20590;-69
2022/11/26 04:18:49;;;;;;;29.25;19.23;;;;;;;3.24;100.00;97835.09;5063150;28;20501;-70
2022/11/26 04:21:15;;;;;;;25.80;18.23;;;;;;;3.22;100.00;97836.47;5056777;28;20079;-70
2022/11/26 04:23:41;;;;;;;27.63;18.92;;;;;;;3.23;100.00;97844.31;5061561;28;20442;-71
2022/11/26 04:26:06;;;;;;;22.02;15.15;;;;;;;3.31;100.00;97844.75;5057704;28;20052;-70
2022/11/26 04:28:33;;;;;;;25.25;14.75;;;;;;;3.32;100.00;97835.53;5062885;28;20564;-71
2022/11/26 04:30:58;;;;;;;24.17;14.63;;;;;;;3.18;100.00;97830.03;5063837;28;20143;-72
2022/11/26 04:33:27;;;;;;;18.95;12.75;;;;;;;3.06;100.00;97828.56;5065682;28;20040;-71
2022/11/26 04:35:53;;;;;;;23.63;14.15;;;;;;;2.92;100.00;97838.47;5072686;28;20032;-71
2022/11/26 04:38:18;;;;;;;25.20;13.88;;;;;;;2.98;100.00;97834.59;5060138;28;20068;-71
2022/11/26 04:40:44;;;;;;;25.55;15.38;;;;;;;3.10;100.00;97838.78;5060267;28;20045;-71
2022/11/26 04:43:09;;;;;;;27.00;15.45;;;;;;;3.17;100.00;97836.53;5057128;28;20468;-71
2022/11/26 04:45:35;;;;;;;28.52;15.57;;;;;;;3.29;100.00;97836.13;5051773;28;20052;-70
2022/11/26 04:48:00;;;;;;;26.58;14.35;;;;;;;3.33;100.00;97829.03;5060161;28;20064;-71
2022/11/26 04:50:25;;;;;;;27.48;15.85;;;;;;;3.28;100.00;97838.03;5039406;28;20139;-70
2022/11/26 04:52:51;;;;;;;24.38;14.20;;;;;;;3.22;100.00;97836.47;5058172;28;20145;-71
2022/11/26 04:55:17;;;;;;;25.63;14.95;;;;;;;3.25;100.00;97835.91;5057721;28;20040;-71
2022/11/26 04:57:43;;;;;;;26.80;14.70;;;;;;;3.33;100.00;97827.13;5062196;28;20134;-71
2022/11/26 05:00:10;;;;;;;23.85;14.02;;;;;;;3.32;100.00;97828.22;5056483;28;20124;-72
2022/11/26 05:02:35;;;;;;;27.13;14.18;;;;;;;3.37;100.00;97836.28;5060084;28;20072;-68
2022/11/26 05:05:01;;;;;;;25.67;15.63;;;;;;;3.46;100.00;97836.44;5049541;28;20075;-68
2022/11/26 05:07:27;;;;;;;33.20;15.57;;;;;;;3.41;100.00;97844.63;5057773;28;20032;-71
2022/11/26 05:09:52;;;;;;;26.17;15.25;;;;;;;3.33;100.00;97842.56;5062793;28;20055;-69
2022/11/26 05:12:17;;;;;;;23.17;14.45;;;;;;;3.33;100.00;97834.44;5057549;28;20139;-71
2022/11/26 05:14:43;;;;;;;29.08;15.60;;;;;;;3.34;100.00;97839.56;5059286;28;20497;-71
2022/11/26 05:17:08;;;;;;;27.25;14.85;;;;;;;3.25;100.00;97844.81;5053631;28;20124;-71
2022/11/26 05:19:33;;;;;;;28.58;14.93;;;;;;;3.16;100.00;97843.84;5062461;28;20063;-69
2022/11/26 05:21:59;;;;;;;21.70;14.68;;;;;;;3.11;100.00;97845.81;5059518;28;20067;-70
2022/11/26 05:24:24;;;;;;;25.45;14.77;;;;;;;3.05;100.00;97843.16;5056851;28;20044;-70
2022/11/26 05:26:50;;;;;;;27.65;14.13;;;;;;;2.98;100.00;97848.13;5061885;28;20032;-72
2022/11/26 05:29:15;;;;;;;27.00;15.02;;;;;;;2.92;100.00;97848.47;5039309;28;20575;-72
2022/11/26 05:31:41;;;;;;;29.70;15.07;;;;;;;2.83;100.00;97853.72;5041407;28;20050;-72
2022/11/26 05:34:06;;;;;;;26.15;16.13;;;;;;;2.74;100.00;97853.56;5057147;28;20485;-71
2022/11/26 05:36:31;;;;;;;29.45;14.90;;;;;;;2.66;100.00;97851.47;5060679;28;20098;-73
2022/11/26 05:38:57;;;;;;;27.27;15.88;;;;;;;2.59;100.00;97842.88;5062278;28;20378;-70
2022/11/26 05:41:22;;;;;;;28.65;16.17;;;;;;;2.53;100.00;97852.16;5056462;28;20067;-69
2022/11/26 05:43:47;;;;;;;30.25;16.05;;;;;;;2.46;100.00;97857.88;5061302;28;20055;-69
2022/11/26 05:46:15;;;;;;;27.63;16.25;;;;;;;2.45;100.00;97861.69;5054285;28;20704;-69
2022/11/26 05:48:40;;;;;;;25.90;16.30;;;;;;;2.51;100.00;97868.66;5061597;28;20405;-72
2022/11/26 05:51:07;;;;;;;28.02;15.57;;;;;;;2.57;100.00;97867.50;5056681;28;20045;-72
2022/11/26 05:53:33;;;;;;;24.42;15.60;;;;;;;2.64;100.00;97869.88;5045726;28;20388;-72
2022/11/26 05:55:58;;;;;;;28.55;16.48;;;;;;;2.69;100.00;97867.13;5060382;28;20115;-73
2022/11/26 05:58:24;;;;;;;23.63;14.52;;;;;;;2.64;100.00;97867.97;5055708;28;20067;-69
2022/11/26 06:00:50;;;;;;;27.48;15.85;;;;;;;2.66;100.00;97873.09;5061467;28;20513;-69
2022/11/26 06:03:15;;;;;;;25.60;14.93;;;;;;;2.79;100.00;97872.44;5056078;28;20531;-69
2022/11/26 06:05:41;;;;;;;25.00;15.60;;;;;;;2.94;100.00;97870.66;5060562;28;20040;-70
2022/11/26 06:08:06;;;;;;;23.73;14.63;;;;;;;2.96;100.00;97868.47;5050535;28;20032;-71
2022/11/26 06:10:32;;;;;;;25.50;15.52;;;;;;;3.01;100.00;97873.84;5061480;28;20493;-71
2022/11/26 06:12:57;;;;;;;30.33;16.15;;;;;;;3.20;100.00;97873.88;5062224;28;20111;-71
2022/11/26 06:15:23;;;;;;;28.65;15.80;;;;;;;3.27;100.00;97876.22;5057062;28;20044;-72
2022/11/26 06:17:48;;;;;;;27.60;15.40;;;;;;;3.30;100.00;97872.94;5061639;28;20039;-70
2022/11/26 06:20:14;;;;;;;31.92;17.08;;;;;;;3.27;100.00;97884.34;5054620;28;20455;-71
2022/11/26 06:22:41;;;;;;;34.88;16.52;;;;;;;3.34;100.00;97882.09;5044702;28;20041;-70
2022/11/26 06:25:09;;;;;;;35.08;18.50;;;;;;;3.27;100.00;97893.28;5057320;28;20143;-70
2022/11/26 06:27:35;;;;;;;30.90;17.27;;;;;;;3.39;100.00;97890.97;5056240;28;20045;-70
2022/11/26 06:30:03;;;;;;;31.48;17.00;;;;;;;3.48;100.00;97888.41;5020228;28;20093;-69
2022/11/26 06:32:29;;;;;;;34.40;18.35;;;;;;;3.62;100.00;97894.72;5038716;28;20397;-70
2022/11/26 06:34:54;;;;;;;30.42;17.25;;;;;;;3.70;100.00;97893.25;5040295;28;20044;-70
2022/11/26 06:37:20;;;;;;;38.47;19.63;;;;;;;3.77;100.00;97901.03;5031674;28;20044;-68
2022/11/26 06:39:45;;;;;;;42.38;21.42;;;;;;;3.80;100.00;97903.16;5053866;28;20194;-70
2022/11/26 06:42:11;;;;;;;38.20;22.13;;;;;;;3.75;100.00;97904.03;5053620;28;20037;-69
2022/11/26 06:44:36;;;;;;;48.22;22.80;;;;;;;3.85;100.00;97900.34;5059531;28;20047;-69
2022/11/26 06:47:02;;;;;;;39.35;21.50;;;;;;;4.00;100.00;97902.06;5063164;28;20064;-70
2022/11/26 06:49:27;;;;;;;44.30;21.13;;;;;;;4.11;100.00;97914.34;5060784;28;20067;-71
2022/11/26 06:51:53;;;;;;;51.28;21.63;;;;;;;4.25;100.00;97913.59;5061762;28;20048;-70
2022/11/26 06:54:18;;;;;;;40.33;21.08;;;;;;;4.26;100.00;97913.28;5037412;28;20048;-72
2022/11/26 06:56:44;;;;;;;47.92;21.20;;;;;;;4.16;100.00;97905.31;5058633;28;20048;-69
2022/11/26 06:59:09;;;;;;;47.60;21.48;;;;;;;4.25;100.00;97909.00;5054763;28;20040;-70
2022/11/26 07:01:35;;;;;;;44.40;22.15;;;;;;;4.30;100.00;97908.09;5060422;28;20036;-70
2022/11/26 07:04:00;;;;;;;45.03;21.52;;;;;;;4.33;100.00;97911.00;5060160;28;20147;-71
2022/11/26 07:06:29;;;;;;;47.08;21.23;;;;;;;4.35;100.00;97913.44;5052833;28;20531;-71
2022/11/26 07:08:58;;;;;;;48.05;21.02;;;;;;;4.32;100.00;97920.28;5054369;28;20044;-70
2022/11/26 07:11:24;;;;;;;40.30;21.23;;;;;;;4.37;100.00;97925.59;5052254;28;20087;-69
2022/11/26 07:13:50;;;;;;;52.92;24.85;;;;;;;4.44;100.00;97922.50;5060884;28;20097;-70
2022/11/26 07:16:16;;;;;;;44.15;21.10;;;;;;;4.45;100.00;97921.41;5053451;28;20041;-70
2022/11/26 07:18:46;;;;;;;43.28;21.02;;;;;;;4.63;100.00;97919.75;5042415;28;20075;-71
2022/11/26 07:21:12;;;;;;;42.97;21.83;;;;;;;4.59;100.00;97919.53;5054605;28;20051;-69
2022/11/26 07:23:38;;;;;;;38.30;19.45;;;;;;;4.68;100.00;97927.81;5056650;28;20049;-69
2022/11/26 07:26:05;;;;;;;39.00;17.08;;;;;;;4.73;100.00;97926.91;5055402;28;20045;-69
2022/11/26 07:28:32;;;;;;;35.15;17.58;;;;;;;4.74;100.00;97934.75;5060213;28;20101;-70
2022/11/26 07:31:06;;;;;;;37.80;17.75;;;;;;;4.66;100.00;97926.47;5043018;28;20044;-70
2022/11/26 07:33:32;;;;;;;32.83;17.02;;;;;;;4.69;100.00;97937.56;5059451;28;20500;-70
2022/11/26 07:35:59;;;;;;;35.38;16.38;;;;;;;4.66;100.00;97949.00;5040534;28;20047;-70
2022/11/26 07:38:25;;;;;;;38.72;17.63;;;;;;;4.72;100.00;97955.16;5051120;28;20320;-69
2022/11/26 07:40:50;;;;;;;50.92;21.40;;;;;;;4.67;100.00;97958.75;5060176;28;20101;-70
2022/11/26 07:43:15;;;;;;;55.88;21.65;;;;;;;4.67;100.00;97963.38;5055094;28;20466;-70
2022/11/26 07:45:41;;;;;;;45.15;20.58;;;;;;;4.70;100.00;97969.03;5063350;28;20036;-69
2022/11/26 07:48:06;;;;;;;49.00;22.65;;;;;;;4.71;100.00;97981.47;5059156;28;20048;-69
2022/11/26 07:50:31;;;;;;;48.58;23.35;;;;;;;4.83;100.00;97980.22;5063133;28;20134;-69
2022/11/26 07:52:57;;;;;;;39.85;20.05;;;;;;;4.71;100.00;97981.47;5062828;28;20532;-68
2022/11/26 07:55:22;;;;;;;33.90;18.35;;;;;;;4.79;100.00;97988.16;5056591;28;20545;-68
2022/11/26 07:57:47;;;;;;;33.67;17.05;;;;;;;4.90;100.00;97986.88;5045148;28;20086;-68
2022/11/26 08:00:13;;;;;;;35.28;17.42;;;;;;;5.07;100.00;97988.22;5055412;28;20508;-68
2022/11/26 08:02:39;;;;;;;36.67;17.05;;;;;;;5.19;100.00;97996.69;5063489;28;20127;-68
2022/11/26 08:05:05;;;;;;;35.10;17.17;;;;;;;5.23;100.00;98003.13;5059010;28;20132;-68
2022/11/26 08:07:30;;;;;;;32.85;16.67;;;;;;;5.24;100.00;98006.66;5050320;28;20039;-69
2022/11/26 08:09:56;;;;;;;33.90;14.88;;;;;;;5.27;100.00;98006.84;5063778;28;20070;-68
2022/11/26 08:12:21;;;;;;;30.25;16.27;;;;;;;5.11;100.00;98010.94;5057198;28;20118;-68
2022/11/26 08:14:47;;;;;;;36.13;16.48;;;;;;;5.15;100.00;98014.69;5063946;28;20055;-68
2022/11/26 08:17:12;;;;;;;35.38;17.30;;;;;;;5.13;100.00;98014.16;5058559;28;20041;-68
2022/11/26 08:19:37;;;;;;;33.42;14.10;;;;;;;5.08;100.00;98015.06;5064272;28;20040;-69
2022/11/26 08:22:03;;;;;;;30.48;16.70;;;;;;;5.10;100.00;98012.06;5060927;28;20036;-69
2022/11/26 08:24:30;;;;;;;29.40;15.95;;;;;;;5.03;100.00;98007.03;5060531;28;20056;-68
2022/11/26 08:26:58;;;;;;;32.45;17.00;;;;;;;5.10;100.00;98010.16;5061700;28;20551;-69
2022/11/26 08:29:24;;;;;;;31.70;16.55;;;;;;;5.09;100.00;98013.16;5041060;28;20082;-69
2022/11/26 08:31:50;;;;;;;34.78;17.60;;;;;;;5.10;100.00;98002.00;5063070;28;20394;-69
2022/11/26 08:34:16;;;;;;;37.35;17.63;;;;;;;5.09;100.00;98011.25;5052300;28;20043;-69
2022/11/26 08:36:42;;;;;;;36.72;17.75;;;;;;;5.12;100.00;98015.28;5061621;28;20040;-68
2022/11/26 08:39:12;;;;;;;36.83;17.45;;;;;;;5.11;100.00;98011.78;5060807;28;20116;-69
2022/11/26 08:41:37;;;;;;;35.35;17.60;;;;;;;5.16;100.00;98006.22;5069879;28;20045;-69
2022/11/26 08:44:03;;;;;;;33.58;16.85;;;;;;;5.15;100.00;98007.34;5050892;28;20134;-69
2022/11/26 08:46:28;;;;;;;34.63;16.95;;;;;;;5.14;100.00;98007.66;5068622;28;20036;-70
2022/11/26 08:48:57;;;;;;;35.42;17.83;;;;;;;5.24;100.00;98009.34;5073847;28;20045;-69
2022/11/26 08:51:23;;;;;;;35.80;17.08;;;;;;;5.32;100.00;98014.91;5062865;28;20961;-69
2022/11/26 08:53:49;;;;;;;34.47;16.67;;;;;;;5.47;100.00;98013.00;5044809;28;20499;-69
2022/11/26 08:56:14;;;;;;;24.48;14.18;;;;;;;5.46;100.00;98014.13;5052513;28;20511;-69
2022/11/26 08:58:43;;;;;;;27.77;14.63;;;;;;;5.45;100.00;98015.22;5062923;28;20043;-68
2022/11/26 09:01:18;;;;;;;25.30;14.53;;;;;;;5.50;100.00;98015.94;5056861;28;20041;-70
2022/11/26 09:03:46;;;;;;;28.80;14.82;;;;;;;5.53;100.00;98011.81;5063089;28;20321;-70
2022/11/26 09:06:12;;;;;;;28.52;14.48;;;;;;;5.53;100.00;98019.97;5057021;28;20072;-69
2022/11/26 09:09:23;;;;;;;28.42;14.70;;;;;;;5.49;100.00;98013.50;5056867;28;20183;-69
2022/11/26 09:11:24;;;;;;;29.73;15.63;;;;;;;5.55;100.00;98010.41;5031561;28;20236;-70
2022/11/26 09:13:50;;;;;;;34.45;17.00;;;;;;;5.61;100.00;98018.47;5044420;28;20894;-71
2022/11/26 09:16:15;;;;;;;30.88;15.93;;;;;;;5.77;100.00;98019.78;5041131;28;20052;-68
2022/11/26 09:18:41;;;;;;;46.63;24.35;;;;;;;5.79;100.00;98025.69;5046903;28;20047;-69
2022/11/26 09:21:07;;;;;;;27.73;13.98;;;;;;;5.87;100.00;98016.84;5025091;28;20049;-69
2022/11/26 09:23:32;;;;;;;29.13;14.52;;;;;;;5.89;100.00;98024.72;5063182;28;20040;-70
2022/11/26 09:25:58;;;;;;;24.70;13.00;;;;;;;5.88;100.00;98033.97;5060727;28;20519;-71
2022/11/26 09:28:23;;;;;;;26.83;13.55;;;;;;;5.89;100.00;98044.53;5055880;28;20391;-71
2022/11/26 09:30:48;;;;;;;29.80;14.90;;;;;;;5.84;100.00;98041.91;5052769;28;20158;-70
2022/11/26 09:33:14;;;;;;;24.55;13.40;;;;;;;5.80;100.00;98046.34;5025622;28;20524;-70
2022/11/26 09:35:40;;;;;;;30.38;15.40;;;;;;;5.69;100.00;98050.38;5065591;28;20066;-71
2022/11/26 09:38:05;;;;;;;28.98;14.52;;;;;;;5.72;100.00;98053.28;5058771;28;20404;-71
2022/11/26 09:41:05;;;;;;;31.05;14.18;;;;;;;5.73;100.00;98040.53;5061894;28;20048;-71
2022/11/26 09:43:39;;;;;;;29.77;14.20;;;;;;;5.78;100.00;98048.56;5060691;28;20482;-71
2022/11/26 09:46:07;;;;;;;28.45;14.90;;;;;;;5.77;100.00;98044.25;5057743;28;20056;-70
2022/11/26 09:48:33;;;;;;;24.35;13.45;;;;;;;5.68;100.00;98048.78;5046454;28;20044;-71
2022/11/26 09:51:12;;;;;;;28.02;14.65;;;;;;;5.67;100.00;98039.81;5065039;28;20036;-71
2022/11/26 09:53:43;;;;;;;30.40;15.60;;;;;;;5.79;100.00;98041.22;5048710;28;20051;-71
2022/11/26 09:56:15;;;;;;;28.63;15.27;;;;;;;5.75;100.00;98038.31;5062634;28;20042;-72
2022/11/26 09:58:56;;;;;;;26.80;13.85;;;;;;;5.80;100.00;98038.19;5066840;28;20044;-71
2022/11/26 10:01:23;;;;;;;27.05;13.05;;;;;;;5.74;100.00;98042.94;5059665;28;20060;-71
2022/11/26 10:03:49;;;;;;;27.58;13.77;;;;;;;5.93;100.00;98047.47;5066871;28;20409;-72
2022/11/26 10:06:39;;;;;;;26.65;13.50;;;;;;;6.09;100.00;98042.53;5043039;28;20051;-71
2022/11/26 10:09:22;;;;;;;33.42;17.95;;;;;;;6.15;100.00;98044.03;5060058;28;20103;-71
2022/11/26 10:12:23;;;;;;;23.77;14.02;;;;;;;5.88;100.00;98040.19;5067187;28;20404;-70
2022/11/26 10:15:36;;;;;;;25.60;13.40;;;;;;;5.99;100.00;98040.03;5040593;28;20047;-70
2022/11/26 10:18:32;;;;;;;21.15;11.98;;;;;;;6.06;100.00;98038.50;5022960;28;20070;-71
2022/11/26 10:21:20;;;;;;;26.20;12.80;;;;;;;6.28;100.00;98045.13;5067249;28;20049;-71
2022/11/26 10:23:56;;;;;;;22.50;12.90;;;;;;;6.43;100.00;98052.16;5049131;28;20402;-70
2022/11/26 10:26:25;;;;;;;19.92;10.88;;;;;;;6.43;100.00;98041.28;5045354;28;20257;-71
2022/11/26 10:29:11;;;;;;;24.38;11.80;;;;;;;6.56;100.00;98040.41;5038105;28;20039;-71
2022/11/26 10:31:41;;;;;;;21.77;10.50;;;;;;;6.63;100.00;98035.34;5065499;28;20385;-70
2022/11/26 10:34:13;;;;;;;;;;;;;;;6.67;100.00;98039.06;5060522;28;20044;-70
2022/11/26 10:36:41;;;;;;;18.50;9.82;;;;;;;6.68;100.00;98029.78;5064165;28;19918;-72
2022/11/26 10:39:16;;;;;;;15.40;8.88;;;;;;;6.83;100.00;98025.91;5058307;28;20047;-71
2022/11/26 10:41:42;;;;;;;14.38;8.05;;;;;;;6.88;100.00;98031.22;5052227;28;20040;-70
2022/11/26 10:44:29;;;;;;;15.55;9.27;;;;;;;6.98;100.00;98030.16;5040798;28;20051;-70
2022/11/26 10:46:55;;;;;;;17.90;8.70;;;;;;;7.14;100.00;98027.06;5057374;28;20067;-70
2022/11/26 10:49:24;;;;;;;15.65;8.52;;;;;;;7.36;100.00;98026.22;5066743;28;20037;-73
2022/11/26 10:51:56;;;;;;;14.23;7.93;;;;;;;7.60;100.00;98023.94;5075509;28;20049;-71
2022/11/26 10:54:24;;;;;;;19.20;9.20;;;;;;;7.57;100.00;98030.00;5053139;28;20063;-73
2022/11/26 10:56:52;;;;;;;15.60;8.18;;;;;;;7.60;100.00;98029.38;5069938;28;20040;-73
2022/11/26 10:59:26;;;;;;;11.43;7.32;;;;;;;7.77;100.00;98019.66;5059052;28;20045;-73
2022/11/26 11:01:53;;;;;;;12.85;7.05;;;;;;;8.15;100.00;98016.38;5030113;28;20422;-72
2022/11/26 11:04:26;;;;;;;11.88;6.70;;;;;;;8.42;100.00;98013.38;5039979;28;20493;-70
2022/11/26 11:06:51;;;;;;;10.80;7.13;;;;;;;8.54;100.00;98014.69;5060149;28;20032;-72
2022/11/26 11:09:30;;;;;;;14.32;7.38;;;;;;;8.64;100.00;98016.28;5060520;28;20643;-72
2022/11/26 11:12:11;;;;;;;15.07;8.10;;;;;;;8.10;100.00;98013.81;5063075;28;20074;-71
2022/11/26 11:14:39;;;;;;;11.93;6.50;;;;;;;8.22;100.00;98009.31;5062213;28;20047;-71
2022/11/26 11:17:05;;;;;;;13.90;7.40;;;;;;;8.41;100.00;98008.25;5055186;28;20055;-74
2022/11/26 11:19:31;;;;;;;15.32;8.02;;;;;;;8.66;100.00;98011.31;5062883;28;20049;-72
2022/11/26 11:21:57;;;;;;;15.40;7.50;;;;;;;8.68;100.00;98006.31;5065685;28;20461;-74
2022/11/26 11:24:27;;;;;;;16.85;7.97;;;;;;;9.49;100.00;98008.28;5065534;28;20036;-71